sensor_id;sensor_type;location;lat;lon;timestamp;pressure;altitude;pressure_sealevel;temperature;humidity
21828;BME280;11076;47.942;11.804;2023-02-03T00:04:05;95367.09;;;2.81;100.00
21828;BME280;11076;47.942;11.804;2023-02-03T00:09:08;95363.00;;;2.86;100.00
21828;BME280;11076;47.942;11.804;2023-02-03T00:14:10;95354.38;;;2.84;100.00
21828;BME280;11076;47.942;11.804;2023-02-03T00:19:13;95359.97;;;2.81;100.00
21828;BME280;11076;47.942;11.804;2023-02-03T00:24:18;95360.81;;;2.82;100.00
21828;BME280;11076;47.942;11.804;2023-02-03T00:29:21;95366.22;;;2.80;100.00
21828;BME280;11076;47.942;11.804;2023-02-03T00:34:30;95376.38;;;2.85;100.00
21828;BME280;11076;47.942;11.804;2023-02-03T00:39:35;95358.03;;;2.83;100.00
21828;BME280;11076;47.942;11.804;2023-02-03T00:44:37;95358.69;;;2.85;100.00
21828;BME280;11076;47.942;11.804;2023-02-03T00:49:40;95358.69;;;2.85;100.00
21828;BME280;11076;47.942;11.804;2023-02-03T00:54:43;95359.66;;;2.84;100.00
21828;BME280;11076;47.942;11.804;2023-02-03T00:59:45;95356.88;;;2.86;100.00
21828;BME280;11076;47.942;11.804;2023-02-03T01:04:47;95355.38;;;2.83;100.00
21828;BME280;11076;47.942;11.804;2023-02-03T01:09:51;95364.13;;;2.84;100.00
21828;BME280;11076;47.942;11.804;2023-02-03T01:14:53;95347.47;;;2.83;100.00
21828;BME280;11076;47.942;11.804;2023-02-03T01:19:56;95353.28;;;2.87;100.00
21828;BME280;11076;47.942;11.804;2023-02-03T01:24:58;95349.41;;;2.81;100.00
21828;BME280;11076;47.942;11.804;2023-02-03T01:30:00;95365.25;;;2.81;100.00
21828;BME280;11076;47.942;11.804;2023-02-03T01:35:03;95361.50;;;2.84;100.00
21828;BME280;11076;47.942;11.804;2023-02-03T01:40:06;95363.44;;;2.82;100.00
21828;BME280;11076;47.942;11.804;2023-02-03T01:45:09;95351.06;;;2.82;100.00
21828;BME280;11076;47.942;11.804;2023-02-03T01:50:20;95359.06;;;2.90;100.00
21828;BME280;11076;47.942;11.804;2023-02-03T01:55:36;95342.66;;;2.96;100.00
21828;BME280;11076;47.942;11.804;2023-02-03T02:00:42;95344.53;;;3.04;100.00
21828;BME280;11076;47.942;11.804;2023-02-03T02:06:00;95344.41;;;3.06;100.00
21828;BME280;11076;47.942;11.804;2023-02-03T02:11:04;95336.19;;;3.09;100.00
21828;BME280;11076;47.942;11.804;2023-02-03T02:16:16;95335.50;;;3.07;100.00
21828;BME280;11076;47.942;11.804;2023-02-03T02:21:50;95328.09;;;3.10;100.00
21828;BME280;11076;47.942;11.804;2023-02-03T02:27:15;95325.00;;;3.15;100.00
21828;BME280;11076;47.942;11.804;2023-02-03T02:48:07;95327.72;;;3.23;99.12
21828;BME280;11076;47.942;11.804;2023-02-03T02:53:13;95334.50;;;3.26;99.55
21828;BME280;11076;47.942;11.804;2023-02-03T02:58:19;95331.03;;;3.25;99.83
21828;BME280;11076;47.942;11.804;2023-02-03T03:03:23;95342.59;;;3.24;99.80
21828;BME280;11076;47.942;11.804;2023-02-03T03:08:38;95333.28;;;3.20;100.00
21828;BME280;11076;47.942;11.804;2023-02-03T03:13:48;95319.13;;;3.21;100.00
21828;BME280;11076;47.942;11.804;2023-02-03T03:19:23;95316.53;;;3.11;100.00
21828;BME280;11076;47.942;11.804;2023-02-03T03:24:30;95322.66;;;3.12;100.00
21828;BME280;11076;47.942;11.804;2023-02-03T03:30:01;95314.44;;;3.15;100.00
21828;BME280;11076;47.942;11.804;2023-02-03T03:35:05;95328.63;;;3.14;100.00
21828;BME280;11076;47.942;11.804;2023-02-03T03:40:31;95340.25;;;3.21;99.13
21828;BME280;11076;47.942;11.804;2023-02-03T03:45:59;95336.63;;;3.22;98.52
21828;BME280;11076;47.942;11.804;2023-02-03T03:51:31;95300.63;;;3.21;97.78
21828;BME280;11076;47.942;11.804;2023-02-03T03:57:29;95290.41;;;3.26;96.33
21828;BME280;11076;47.942;11.804;2023-02-03T04:02:04;95294.34;;;3.22;96.29
21828;BME280;11076;47.942;11.804;2023-02-03T04:07:06;95275.16;;;3.20;95.89
21828;BME280;11076;47.942;11.804;2023-02-03T04:12:23;95303.25;;;3.21;95.25
21828;BME280;11076;47.942;11.804;2023-02-03T04:17:25;95282.13;;;3.21;94.57
21828;BME280;11076;47.942;11.804;2023-02-03T04:22:28;95299.19;;;3.27;93.26
21828;BME280;11076;47.942;11.804;2023-02-03T04:27:30;95284.28;;;3.26;93.84
21828;BME280;11076;47.942;11.804;2023-02-03T04:32:33;95308.22;;;3.24;93.42
21828;BME280;11076;47.942;11.804;2023-02-03T04:37:36;95300.69;;;3.29;91.58
21828;BME280;11076;47.942;11.804;2023-02-03T04:42:40;95314.06;;;3.28;91.76
21828;BME280;11076;47.942;11.804;2023-02-03T04:47:42;95310.97;;;3.32;90.95
21828;BME280;11076;47.942;11.804;2023-02-03T04:52:44;95282.19;;;3.29;91.15
21828;BME280;11076;47.942;11.804;2023-02-03T04:57:47;95304.34;;;3.28;91.52
21828;BME280;11076;47.942;11.804;2023-02-03T05:02:49;95332.25;;;3.31;91.54
21828;BME280;11076;47.942;11.804;2023-02-03T05:07:51;95319.25;;;3.37;90.04
21828;BME280;11076;47.942;11.804;2023-02-03T05:12:54;95309.00;;;3.34;91.48
21828;BME280;11076;47.942;11.804;2023-02-03T05:17:56;95318.44;;;3.37;90.47
21828;BME280;11076;47.942;11.804;2023-02-03T05:22:59;95329.47;;;3.32;90.82
21828;BME280;11076;47.942;11.804;2023-02-03T05:28:02;95330.66;;;3.38;90.65
21828;BME280;11076;47.942;11.804;2023-02-03T05:33:05;95335.94;;;3.38;90.37
21828;BME280;11076;47.942;11.804;2023-02-03T05:38:07;95316.31;;;3.41;89.78
21828;BME280;11076;47.942;11.804;2023-02-03T05:43:10;95310.38;;;3.38;90.05
21828;BME280;11076;47.942;11.804;2023-02-03T05:48:12;95281.78;;;3.42;90.20
21828;BME280;11076;47.942;11.804;2023-02-03T05:53:14;95292.22;;;3.44;89.77
21828;BME280;11076;47.942;11.804;2023-02-03T05:58:17;95292.88;;;3.46;89.38
21828;BME280;11076;47.942;11.804;2023-02-03T06:03:19;95282.94;;;3.39;89.99
21828;BME280;11076;47.942;11.804;2023-02-03T06:08:22;95283.94;;;3.38;89.73
21828;BME280;11076;47.942;11.804;2023-02-03T06:13:24;95294.50;;;3.38;90.45
21828;BME280;11076;47.942;11.804;2023-02-03T06:18:26;95326.22;;;3.38;90.01
21828;BME280;11076;47.942;11.804;2023-02-03T06:23:29;95324.94;;;3.43;90.15
21828;BME280;11076;47.942;11.804;2023-02-03T06:28:32;95322.81;;;3.46;89.07
21828;BME280;11076;47.942;11.804;2023-02-03T06:33:34;95315.31;;;3.42;89.21
21828;BME280;11076;47.942;11.804;2023-02-03T06:38:37;95320.31;;;3.45;89.02
21828;BME280;11076;47.942;11.804;2023-02-03T06:43:39;95356.72;;;4.13;94.90
21828;BME280;11076;47.942;11.804;2023-02-03T06:48:41;95338.56;;;4.18;89.42
21828;BME280;11076;47.942;11.804;2023-02-03T06:53:44;95327.28;;;3.90;86.95
21828;BME280;11076;47.942;11.804;2023-02-03T06:58:46;95319.22;;;3.73;87.17
21828;BME280;11076;47.942;11.804;2023-02-03T07:03:48;95345.31;;;3.68;86.44
21828;BME280;11076;47.942;11.804;2023-02-03T07:08:51;95347.28;;;3.66;86.69
21828;BME280;11076;47.942;11.804;2023-02-03T07:13:53;95349.31;;;3.72;85.50
21828;BME280;11076;47.942;11.804;2023-02-03T07:18:56;95340.72;;;3.70;84.90
21828;BME280;11076;47.942;11.804;2023-02-03T07:23:58;95326.88;;;3.76;84.18
21828;BME280;11076;47.942;11.804;2023-02-03T07:29:01;95311.03;;;3.85;82.37
21828;BME280;11076;47.942;11.804;2023-02-03T07:34:03;95296.44;;;3.98;82.22
21828;BME280;11076;47.942;11.804;2023-02-03T07:39:06;95299.53;;;3.94;81.07
21828;BME280;11076;47.942;11.804;2023-02-03T07:44:08;95296.63;;;4.05;80.96
21828;BME280;11076;47.942;11.804;2023-02-03T07:49:11;95272.31;;;4.10;80.43
21828;BME280;11076;47.942;11.804;2023-02-03T07:54:13;95264.59;;;4.16;79.22
21828;BME280;11076;47.942;11.804;2023-02-03T07:59:16;95265.97;;;4.29;78.74
21828;BME280;11076;47.942;11.804;2023-02-03T08:04:18;95273.75;;;4.30;78.57
21828;BME280;11076;47.942;11.804;2023-02-03T08:09:21;95270.97;;;4.32;77.26
21828;BME280;11076;47.942;11.804;2023-02-03T08:14:24;95275.69;;;4.54;76.66
21828;BME280;11076;47.942;11.804;2023-02-03T08:19:26;95258.84;;;4.64;76.59
21828;BME280;11076;47.942;11.804;2023-02-03T08:24:28;95263.81;;;4.75;76.81
21828;BME280;11076;47.942;11.804;2023-02-03T08:29:31;95270.47;;;4.87;73.85
21828;BME280;11076;47.942;11.804;2023-02-03T08:34:33;95262.56;;;4.95;74.11
21828;BME280;11076;47.942;11.804;2023-02-03T08:39:36;95272.84;;;5.07;73.50
21828;BME280;11076;47.942;11.804;2023-02-03T08:44:38;95281.47;;;5.17;72.75
21828;BME280;11076;47.942;11.804;2023-02-03T08:49:41;95303.00;;;5.06;71.74
21828;BME280;11076;47.942;11.804;2023-02-03T08:54:44;95293.22;;;4.98;72.20
21828;BME280;11076;47.942;11.804;2023-02-03T08:59:47;95291.88;;;4.94;71.32
21828;BME280;11076;47.942;11.804;2023-02-03T09:04:50;95284.91;;;5.01;71.54
21828;BME280;11076;47.942;11.804;2023-02-03T09:09:53;95286.09;;;5.07;69.88
21828;BME280;11076;47.942;11.804;2023-02-03T09:14:55;95287.09;;;5.14;70.37
21828;BME280;11076;47.942;11.804;2023-02-03T09:19:57;95283.13;;;5.18;69.79
21828;BME280;11076;47.942;11.804;2023-02-03T09:25:00;95290.78;;;5.37;70.43
21828;BME280;11076;47.942;11.804;2023-02-03T09:30:02;95277.19;;;5.57;70.86
21828;BME280;11076;47.942;11.804;2023-02-03T09:35:05;95283.31;;;5.41;69.85
21828;BME280;11076;47.942;11.804;2023-02-03T09:40:17;95274.53;;;5.41;70.72
21828;BME280;11076;47.942;11.804;2023-02-03T09:45:29;95255.97;;;5.24;70.73
21828;BME280;11076;47.942;11.804;2023-02-03T09:50:34;95277.19;;;5.24;71.95
21828;BME280;11076;47.942;11.804;2023-02-03T09:55:40;95262.78;;;5.51;70.96
21828;BME280;11076;47.942;11.804;2023-02-03T10:16:44;95218.25;;;6.03;67.20
21828;BME280;11076;47.942;11.804;2023-02-03T10:21:54;95255.94;;;5.98;67.56
21828;BME280;11076;47.942;11.804;2023-02-03T10:26:58;95271.56;;;6.01;66.42
21828;BME280;11076;47.942;11.804;2023-02-03T10:32:01;95268.38;;;5.89;66.74
21828;BME280;11076;47.942;11.804;2023-02-03T10:42:19;95226.53;;;6.16;65.20
21828;BME280;11076;47.942;11.804;2023-02-03T10:47:27;95234.84;;;6.52;65.48
21828;BME280;11076;47.942;11.804;2023-02-03T10:52:32;95230.88;;;6.56;63.44
21828;BME280;11076;47.942;11.804;2023-02-03T10:57:35;95227.13;;;6.43;64.41
21828;BME280;11076;47.942;11.804;2023-02-03T11:02:40;95226.72;;;6.54;64.56
21828;BME280;11076;47.942;11.804;2023-02-03T11:07:43;95217.06;;;6.61;63.93
21828;BME280;11076;47.942;11.804;2023-02-03T11:12:46;95217.97;;;6.45;62.83
21828;BME280;11076;47.942;11.804;2023-02-03T11:17:48;95240.81;;;6.63;62.80
21828;BME280;11076;47.942;11.804;2023-02-03T11:22:50;95220.91;;;6.50;63.74
21828;BME280;11076;47.942;11.804;2023-02-03T11:27:54;95212.94;;;6.59;63.06
21828;BME280;11076;47.942;11.804;2023-02-03T11:33:01;95211.25;;;6.57;63.94
21828;BME280;11076;47.942;11.804;2023-02-03T11:38:04;95200.91;;;6.71;62.88
21828;BME280;11076;47.942;11.804;2023-02-03T11:43:26;95198.41;;;6.69;62.60
21828;BME280;11076;47.942;11.804;2023-02-03T11:48:37;95192.97;;;6.63;62.96
21828;BME280;11076;47.942;11.804;2023-02-03T11:54:10;95157.34;;;6.72;63.42
21828;BME280;11076;47.942;11.804;2023-02-03T11:59:47;95172.88;;;6.60;62.88
21828;BME280;11076;47.942;11.804;2023-02-03T12:20:40;95138.03;;;6.78;61.74
21828;BME280;11076;47.942;11.804;2023-02-03T12:26:08;95145.84;;;6.80;61.40
21828;BME280;11076;47.942;11.804;2023-02-03T12:36:44;95132.94;;;6.45;62.06
21828;BME280;11076;47.942;11.804;2023-02-03T12:42:00;95119.97;;;6.50;62.55
21828;BME280;11076;47.942;11.804;2023-02-03T12:47:12;95121.72;;;6.35;62.90
21828;BME280;11076;47.942;11.804;2023-02-03T12:52:22;95116.06;;;6.38;63.24
21828;BME280;11076;47.942;11.804;2023-02-03T12:57:40;95086.59;;;6.25;63.95
21828;BME280;11076;47.942;11.804;2023-02-03T13:13:41;95079.94;;;6.29;64.69
21828;BME280;11076;47.942;11.804;2023-02-03T13:18:52;95054.63;;;6.41;64.81
21828;BME280;11076;47.942;11.804;2023-02-03T13:23:56;95053.06;;;6.24;65.48
21828;BME280;11076;47.942;11.804;2023-02-03T13:44:57;95034.72;;;5.74;67.60
21828;BME280;11076;47.942;11.804;2023-02-03T13:50:05;95011.84;;;5.73;67.25
21828;BME280;11076;47.942;11.804;2023-02-03T13:56:14;94999.25;;;5.75;67.61
21828;BME280;11076;47.942;11.804;2023-02-03T14:05:50;95003.63;;;5.60;67.03
21828;BME280;11076;47.942;11.804;2023-02-03T14:11:48;94989.09;;;5.48;68.16
21828;BME280;11076;47.942;11.804;2023-02-03T14:16:48;94995.22;;;5.48;67.56
21828;BME280;11076;47.942;11.804;2023-02-03T14:26:57;94979.78;;;5.52;67.55
21828;BME280;11076;47.942;11.804;2023-02-03T14:32:04;94975.94;;;5.54;67.68
21828;BME280;11076;47.942;11.804;2023-02-03T14:37:27;94949.31;;;5.48;67.55
21828;BME280;11076;47.942;11.804;2023-02-03T14:58:58;94963.63;;;5.30;70.36
21828;BME280;11076;47.942;11.804;2023-02-03T15:14:42;94909.34;;;5.18;71.00
21828;BME280;11076;47.942;11.804;2023-02-03T15:19:44;94899.06;;;5.15;71.58
21828;BME280;11076;47.942;11.804;2023-02-03T15:24:47;94886.50;;;5.09;71.84
21828;BME280;11076;47.942;11.804;2023-02-03T15:29:52;94899.13;;;5.07;71.64
21828;BME280;11076;47.942;11.804;2023-02-03T15:34:56;94917.00;;;5.05;71.91
21828;BME280;11076;47.942;11.804;2023-02-03T15:40:07;94903.75;;;5.05;72.40
21828;BME280;11076;47.942;11.804;2023-02-03T16:01:30;94881.41;;;4.99;73.10
21828;BME280;11076;47.942;11.804;2023-02-03T16:06:34;94911.59;;;4.98;73.17
21828;BME280;11076;47.942;11.804;2023-02-03T16:11:40;94926.97;;;5.03;72.80
21828;BME280;11076;47.942;11.804;2023-02-03T16:16:51;94908.78;;;5.00;73.37
21828;BME280;11076;47.942;11.804;2023-02-03T16:22:26;94923.00;;;4.98;73.87
21828;BME280;11076;47.942;11.804;2023-02-03T16:27:31;94933.97;;;4.95;74.09
21828;BME280;11076;47.942;11.804;2023-02-03T16:32:34;94923.00;;;4.98;73.65
21828;BME280;11076;47.942;11.804;2023-02-03T16:38:04;94901.47;;;5.02;73.93
21828;BME280;11076;47.942;11.804;2023-02-03T16:43:26;94919.88;;;4.95;75.04
21828;BME280;11076;47.942;11.804;2023-02-03T16:48:47;94961.28;;;4.96;75.00
21828;BME280;11076;47.942;11.804;2023-02-03T16:54:12;94998.88;;;5.00;75.54
21828;BME280;11076;47.942;11.804;2023-02-03T16:59:15;95040.63;;;4.97;75.79
21828;BME280;11076;47.942;11.804;2023-02-03T17:04:17;94999.19;;;4.96;75.74
21828;BME280;11076;47.942;11.804;2023-02-03T17:09:19;95025.03;;;4.94;76.46
21828;BME280;11076;47.942;11.804;2023-02-03T17:14:24;95026.88;;;4.94;76.70
21828;BME280;11076;47.942;11.804;2023-02-03T17:19:28;95011.78;;;4.94;77.13
21828;BME280;11076;47.942;11.804;2023-02-03T17:24:30;95014.44;;;4.94;77.62
21828;BME280;11076;47.942;11.804;2023-02-03T17:29:32;95033.66;;;4.96;77.18
21828;BME280;11076;47.942;11.804;2023-02-03T17:34:34;95028.00;;;4.91;79.01
21828;BME280;11076;47.942;11.804;2023-02-03T17:39:37;95031.69;;;4.82;81.64
21828;BME280;11076;47.942;11.804;2023-02-03T17:44:57;95053.22;;;4.71;83.67
21828;BME280;11076;47.942;11.804;2023-02-03T17:50:17;95032.03;;;4.63;84.35
21828;BME280;11076;47.942;11.804;2023-02-03T17:55:37;95039.81;;;4.64;85.73
21828;BME280;11076;47.942;11.804;2023-02-03T18:00:39;95023.41;;;4.61;86.09
21828;BME280;11076;47.942;11.804;2023-02-03T18:05:49;95016.66;;;4.58;86.53
21828;BME280;11076;47.942;11.804;2023-02-03T18:10:52;95044.63;;;4.61;87.99
21828;BME280;11076;47.942;11.804;2023-02-03T18:15:55;95041.31;;;4.58;90.29
21828;BME280;11076;47.942;11.804;2023-02-03T18:20:57;95033.69;;;4.47;92.05
21828;BME280;11076;47.942;11.804;2023-02-03T18:26:00;95019.13;;;4.43;93.30
21828;BME280;11076;47.942;11.804;2023-02-03T18:31:04;95018.63;;;4.39;93.22
21828;BME280;11076;47.942;11.804;2023-02-03T18:36:08;95012.50;;;4.39;94.04
21828;BME280;11076;47.942;11.804;2023-02-03T18:41:20;95020.78;;;4.36;95.47
21828;BME280;11076;47.942;11.804;2023-02-03T18:46:25;95014.47;;;4.37;94.91
21828;BME280;11076;47.942;11.804;2023-02-03T18:51:28;95020.13;;;4.34;95.19
21828;BME280;11076;47.942;11.804;2023-02-03T18:56:30;95007.72;;;4.34;95.65
21828;BME280;11076;47.942;11.804;2023-02-03T19:01:37;94957.56;;;4.41;94.38
21828;BME280;11076;47.942;11.804;2023-02-03T19:06:40;94960.56;;;4.38;94.68
21828;BME280;11076;47.942;11.804;2023-02-03T19:11:46;94971.81;;;4.40;94.07
21828;BME280;11076;47.942;11.804;2023-02-03T19:16:49;94972.63;;;4.41;94.19
21828;BME280;11076;47.942;11.804;2023-02-03T19:21:54;94952.94;;;4.43;96.56
21828;BME280;11076;47.942;11.804;2023-02-03T19:26:56;94952.59;;;4.22;99.44
21828;BME280;11076;47.942;11.804;2023-02-03T19:31:59;94942.22;;;4.12;100.00
21828;BME280;11076;47.942;11.804;2023-02-03T19:37:01;94931.44;;;4.05;100.00
21828;BME280;11076;47.942;11.804;2023-02-03T19:42:04;94994.78;;;4.07;100.00
21828;BME280;11076;47.942;11.804;2023-02-03T19:47:06;94967.81;;;4.03;100.00
21828;BME280;11076;47.942;11.804;2023-02-03T19:52:08;94980.69;;;3.90;100.00
21828;BME280;11076;47.942;11.804;2023-02-03T19:57:11;94966.63;;;3.81;100.00
21828;BME280;11076;47.942;11.804;2023-02-03T20:02:13;94926.47;;;3.86;100.00
21828;BME280;11076;47.942;11.804;2023-02-03T20:07:17;94939.03;;;3.75;100.00
21828;BME280;11076;47.942;11.804;2023-02-03T20:12:20;94941.16;;;3.72;100.00
21828;BME280;11076;47.942;11.804;2023-02-03T20:17:22;94930.41;;;3.73;100.00
21828;BME280;11076;47.942;11.804;2023-02-03T20:22:25;94970.09;;;3.73;100.00
21828;BME280;11076;47.942;11.804;2023-02-03T20:27:27;94963.16;;;3.72;100.00
21828;BME280;11076;47.942;11.804;2023-02-03T20:32:31;94991.91;;;3.67;100.00
21828;BME280;11076;47.942;11.804;2023-02-03T20:37:33;94971.41;;;3.61;100.00
21828;BME280;11076;47.942;11.804;2023-02-03T20:42:38;94977.00;;;3.58;100.00
21828;BME280;11076;47.942;11.804;2023-02-03T20:47:41;94966.94;;;3.62;100.00
21828;BME280;11076;47.942;11.804;2023-02-03T20:52:45;94958.47;;;3.58;100.00
21828;BME280;11076;47.942;11.804;2023-02-03T20:57:48;94985.25;;;3.47;100.00
21828;BME280;11076;47.942;11.804;2023-02-03T21:02:52;94990.84;;;3.44;100.00
21828;BME280;11076;47.942;11.804;2023-02-03T21:08:15;95013.66;;;3.45;100.00
21828;BME280;11076;47.942;11.804;2023-02-03T21:13:21;95042.59;;;3.46;100.00
21828;BME280;11076;47.942;11.804;2023-02-03T21:18:43;95005.75;;;3.53;100.00
21828;BME280;11076;47.942;11.804;2023-02-03T21:23:46;95016.00;;;3.56;100.00
21828;BME280;11076;47.942;11.804;2023-02-03T21:28:51;95015.84;;;3.57;100.00
21828;BME280;11076;47.942;11.804;2023-02-03T21:34:02;95002.31;;;3.61;100.00
21828;BME280;11076;47.942;11.804;2023-02-03T21:39:28;95005.09;;;3.59;100.00
21828;BME280;11076;47.942;11.804;2023-02-03T21:44:32;95000.13;;;3.56;100.00
21828;BME280;11076;47.942;11.804;2023-02-03T21:49:36;95006.56;;;3.53;100.00
21828;BME280;11076;47.942;11.804;2023-02-03T21:54:40;95005.75;;;3.53;100.00
21828;BME280;11076;47.942;11.804;2023-02-03T21:59:45;94999.00;;;3.58;100.00
21828;BME280;11076;47.942;11.804;2023-02-03T22:04:48;95027.22;;;3.58;100.00
21828;BME280;11076;47.942;11.804;2023-02-03T22:09:50;95009.56;;;3.58;100.00
21828;BME280;11076;47.942;11.804;2023-02-03T22:14:52;95015.69;;;3.59;100.00
21828;BME280;11076;47.942;11.804;2023-02-03T22:19:55;95029.53;;;3.53;100.00
21828;BME280;11076;47.942;11.804;2023-02-03T22:24:57;95029.84;;;3.50;100.00
21828;BME280;11076;47.942;11.804;2023-02-03T22:30:00;95027.19;;;3.50;100.00
21828;BME280;11076;47.942;11.804;2023-02-03T22:35:02;95032.50;;;3.50;100.00
21828;BME280;11076;47.942;11.804;2023-02-03T22:40:05;95051.84;;;3.50;100.00
21828;BME280;11076;47.942;11.804;2023-02-03T22:45:08;95065.06;;;3.50;100.00
21828;BME280;11076;47.942;11.804;2023-02-03T22:50:11;95058.09;;;3.49;100.00
21828;BME280;11076;47.942;11.804;2023-02-03T22:55:15;95075.78;;;3.49;100.00
21828;BME280;11076;47.942;11.804;2023-02-03T23:00:22;95079.13;;;3.51;100.00
21828;BME280;11076;47.942;11.804;2023-02-03T23:05:24;95095.94;;;3.50;100.00
21828;BME280;11076;47.942;11.804;2023-02-03T23:10:28;95106.53;;;3.50;100.00
21828;BME280;11076;47.942;11.804;2023-02-03T23:15:32;95107.31;;;3.42;100.00
21828;BME280;11076;47.942;11.804;2023-02-03T23:20:34;95096.91;;;3.41;100.00
21828;BME280;11076;47.942;11.804;2023-02-03T23:25:36;95111.72;;;3.33;100.00
21828;BME280;11076;47.942;11.804;2023-02-03T23:30:39;95122.25;;;3.25;100.00
21828;BME280;11076;47.942;11.804;2023-02-03T23:35:41;95104.22;;;3.21;100.00
21828;BME280;11076;47.942;11.804;2023-02-03T23:40:46;95138.53;;;3.12;100.00
21828;BME280;11076;47.942;11.804;2023-02-03T23:45:49;95138.00;;;3.09;100.00
21828;BME280;11076;47.942;11.804;2023-02-03T23:50:52;95137.63;;;3.04;100.00
21828;BME280;11076;47.942;11.804;2023-02-03T23:55:54;95128.06;;;3.03;100.00
